Main page
METAR-TAF:

METAR-TAF

Airports :

Volgograd, Russia

Volgograd International Airport

latitude: 48-47N, longitude: 044-22E, elevation: 145 m

Current weather observation

The report was made 27 minutes ago, at 08:30 UTC
Wind 12 kt from the East
Temperature 22°C
Humidity 35%
Pressure 1023 hPa
Visibility 10 km or more
no clouds below 1500 m and no cumulonimbus

METAR: URWW 300830Z 09006MPS CAVOK 22/06 Q1023 R06/010070 NOSIG

Time: 11:57 (08:57 UTC)

Forecast

The report was made 1 hour and 0 minutes ago, at 07:57 UTC
Forecast valid from 30 at 09 UTC to 30 at 18 UTC
Wind 16 kt from the East with gusts up to 25 kt
Visibility 10 km or more
Scattered clouds at a height of 3000 ft, Cumulonimbus.
Broken clouds at a height of 10000 ft
Temporary
from 30 at 09 UTC to 30 at 15 UTC
Wind 19 kt from the East/Southeast with gusts up to 29 kt

TAF: URWW 300757Z 3009/3018 08008G13MPS 9999 SCT030CB BKN100 TEMPO 3009/3015 12010G15MPS

Weather observations and forecasts of more than 4000 airports (METAR and TAF reports).

The available stations are represented by yellow and red dots on the map.

Hover mouse over dot to see the name of the station.

Then click to see weather observations and forecasts.

To change the map : click on the green buttons with a black cross to zoom in, on the green button with a dash to zoom out, or on the green arrows for adjacent maps.


METAR-TAF: